createdAt,value
2019-06-07T00:01:08.422Z,12.59
2019-06-07T00:03:37.650Z,12.49
2019-06-07T00:06:07.809Z,12.46
2019-06-07T00:08:37.431Z,12.58
2019-06-07T00:11:07.768Z,12.58
2019-06-07T00:13:37.389Z,12.61
2019-06-07T00:16:06.386Z,12.63
2019-06-07T00:18:35.402Z,12.65
2019-06-07T00:21:04.439Z,12.73
2019-06-07T00:23:33.437Z,12.77
2019-06-07T00:26:02.450Z,12.76
2019-06-07T00:28:31.883Z,12.72
2019-06-07T00:31:01.625Z,12.66
2019-06-07T00:33:31.338Z,12.53
2019-06-07T00:36:00.343Z,12.54
2019-06-07T00:38:29.745Z,12.40
2019-06-07T00:40:59.145Z,12.47
2019-06-07T00:43:28.741Z,12.48
2019-06-07T00:45:57.876Z,12.41
2019-06-07T00:48:32.365Z,12.38
2019-06-07T00:50:58.388Z,12.36
2019-06-07T00:53:32.153Z,12.42
2019-06-07T00:55:58.727Z,12.31
2019-06-07T00:58:29.485Z,12.30
2019-06-07T01:00:58.640Z,12.27
2019-06-07T01:03:27.978Z,12.32
2019-06-07T01:05:57.253Z,12.49
2019-06-07T01:08:29.909Z,12.42
2019-06-07T01:10:57.021Z,12.43
2019-06-07T01:13:27.109Z,12.41
2019-06-07T01:15:56.253Z,12.40
2019-06-07T01:18:37.329Z,12.43
2019-06-07T01:20:56.686Z,12.32
2019-06-07T01:24:01.417Z,12.43
2019-06-07T01:25:56.788Z,12.41
2019-06-07T01:28:27.193Z,12.56
2019-06-07T01:30:56.553Z,12.49
2019-06-07T01:33:46.470Z,12.41
2019-06-07T01:35:56.563Z,12.42
2019-06-07T01:38:26.884Z,12.45
2019-06-07T01:40:55.962Z,12.49
2019-06-07T01:43:28.411Z,12.43
2019-06-07T01:45:55.981Z,12.46
2019-06-07T01:48:27.766Z,12.42
2019-06-07T01:50:55.756Z,12.36
2019-06-07T01:53:26.382Z,12.35
2019-06-07T01:55:55.515Z,12.44
2019-06-07T01:58:27.375Z,12.44
2019-06-07T02:00:55.454Z,12.46
2019-06-07T02:03:26.917Z,12.38
2019-06-07T02:05:55.240Z,12.43
2019-06-07T02:08:27.358Z,12.50
2019-06-07T02:10:55.725Z,12.36
2019-06-07T02:13:28.683Z,12.34
2019-06-07T02:15:55.816Z,12.38
2019-06-07T02:18:27.750Z,12.34
2019-06-07T02:20:55.898Z,12.40
2019-06-07T02:23:30.350Z,12.48
2019-06-07T02:25:55.709Z,12.52
2019-06-07T02:28:42.247Z,12.51
2019-06-07T02:31:00.153Z,12.49
2019-06-07T02:33:31.155Z,12.44
2019-06-07T02:35:57.270Z,12.40
2019-06-07T02:38:29.698Z,12.47
2019-06-07T02:40:57.684Z,12.51
2019-06-07T02:43:28.231Z,12.41
2019-06-07T02:46:21.210Z,12.41
2019-06-07T02:48:35.372Z,12.26
2019-06-07T02:50:59.982Z,12.43
2019-06-07T02:53:30.819Z,12.32
2019-06-07T02:56:35.111Z,12.39
2019-06-07T02:58:35.357Z,12.43
2019-06-07T03:01:08.636Z,12.47
2019-06-07T03:03:33.633Z,12.48
2019-06-07T03:06:04.091Z,12.47
2019-06-07T03:08:36.581Z,12.49
2019-06-07T03:11:05.073Z,12.43
2019-06-07T03:13:37.427Z,12.50
2019-06-07T03:16:08.591Z,12.49
2019-06-07T03:19:09.547Z,12.45
2019-06-07T03:21:41.680Z,12.46
2019-06-07T03:24:11.299Z,12.49
2019-06-07T03:29:12.983Z,12.36
2019-06-07T03:31:47.788Z,12.34
2019-06-07T03:34:12.935Z,12.32
2019-06-07T03:36:42.280Z,12.20
2019-06-07T03:39:11.292Z,12.18
2019-06-07T03:41:50.342Z,12.14
2019-06-07T03:44:11.081Z,12.22
2019-06-07T03:46:41.573Z,12.22
2019-06-07T03:49:10.941Z,12.30
2019-06-07T03:51:41.237Z,12.31
2019-06-07T03:54:10.168Z,12.33
2019-06-07T03:56:41.006Z,12.42
2019-06-07T03:59:09.939Z,12.37
2019-06-07T04:01:41.152Z,12.39
2019-06-07T04:04:10.305Z,12.57
2019-06-07T04:06:42.164Z,12.57
2019-06-07T04:09:10.109Z,12.52
2019-06-07T04:11:40.802Z,12.52
2019-06-07T04:14:09.967Z,12.58
2019-06-07T04:16:44.145Z,12.58
2019-06-07T04:19:10.729Z,12.60
2019-06-07T04:21:42.878Z,12.67
2019-06-07T04:24:10.507Z,12.67
2019-06-07T04:26:43.544Z,12.72
2019-06-07T04:29:33.039Z,12.72
2019-06-07T04:31:43.302Z,12.74
2019-06-07T04:34:12.426Z,12.77
2019-06-07T04:36:56.293Z,12.81
2019-06-07T04:39:12.992Z,12.74
2019-06-07T04:41:42.295Z,12.69
2019-06-07T04:44:12.628Z,12.69
2019-06-07T04:46:42.731Z,12.63
2019-06-07T04:49:13.527Z,12.74
2019-06-07T04:51:43.791Z,12.84
2019-06-07T04:54:13.237Z,12.83
2019-06-07T04:56:44.522Z,12.88
2019-06-07T04:59:13.334Z,12.89
2019-06-07T05:01:42.898Z,12.89
2019-06-07T05:04:11.984Z,12.97
2019-06-07T05:06:42.646Z,12.97
2019-06-07T05:09:12.189Z,12.91
2019-06-07T05:11:44.992Z,13.00
2019-06-07T05:14:13.873Z,13.14
2019-06-07T05:16:44.575Z,13.12
2019-06-07T05:19:14.227Z,13.32
2019-06-07T05:22:01.410Z,13.36
2019-06-07T05:24:14.669Z,13.49
2019-06-07T05:26:43.753Z,13.43
2019-06-07T05:29:12.800Z,13.59
2019-06-07T05:31:45.161Z,13.62
2019-06-07T05:34:13.033Z,13.66
2019-06-07T05:36:44.892Z,13.91
2019-06-07T05:39:12.886Z,14.11
2019-06-07T05:41:44.440Z,14.29
2019-06-07T05:44:15.201Z,14.42
2019-06-07T05:46:47.148Z,14.57
2019-06-07T05:49:15.449Z,14.55
2019-06-07T05:51:45.122Z,14.62
2019-06-07T05:54:14.725Z,14.59
2019-06-07T05:56:45.375Z,14.70
2019-06-07T05:59:15.563Z,14.85
2019-06-07T06:01:56.570Z,15.01
2019-06-07T06:04:15.685Z,15.18
2019-06-07T06:06:47.109Z,15.18
2019-06-07T06:09:15.440Z,15.25
2019-06-07T06:11:56.554Z,15.25
2019-06-07T06:14:15.337Z,15.23
2019-06-07T06:16:47.428Z,15.13
2019-06-07T06:19:15.801Z,15.18
2019-06-07T06:21:46.394Z,15.29
2019-06-07T06:24:15.523Z,15.45
2019-06-07T06:26:51.223Z,15.69
2019-06-07T06:29:15.344Z,15.75
2019-06-07T06:32:35.844Z,15.84
2019-06-07T06:34:15.491Z,15.99
2019-06-07T06:36:47.281Z,16.24
2019-06-07T06:39:15.902Z,16.33
2019-06-07T06:41:54.425Z,16.39
2019-06-07T06:44:16.482Z,16.39
2019-06-07T06:46:50.198Z,16.60
2019-06-07T06:49:16.390Z,16.57
2019-06-07T06:51:47.824Z,16.64
2019-06-07T06:54:39.029Z,16.51
2019-06-07T06:56:52.032Z,16.55
2019-06-07T06:59:38.137Z,16.68
2019-06-07T07:01:52.451Z,16.69
2019-06-07T07:04:20.355Z,16.84
2019-06-07T07:06:51.271Z,16.87
2019-06-07T07:09:21.551Z,16.96
2019-06-07T07:12:08.860Z,17.07
2019-06-07T07:14:21.341Z,17.13
2019-06-07T07:16:54.493Z,17.17
2019-06-07T07:19:21.142Z,17.30
2019-06-07T07:21:53.123Z,17.40
2019-06-07T07:24:22.354Z,17.72
2019-06-07T07:26:53.922Z,17.70
2019-06-07T07:29:22.538Z,17.93
2019-06-07T07:31:55.781Z,18.07
2019-06-07T07:34:34.680Z,18.16
2019-06-07T07:36:59.407Z,18.24
2019-06-07T07:39:24.940Z,18.38
2019-06-07T07:42:13.772Z,18.46
2019-06-07T07:44:25.021Z,18.20
2019-06-07T07:46:55.904Z,18.25
2019-06-07T07:49:25.112Z,17.92
2019-06-07T07:51:57.083Z,17.67
2019-06-07T07:54:25.242Z,17.49
2019-06-07T07:56:56.157Z,17.39
2019-06-07T07:59:41.336Z,17.50
2019-06-07T08:01:56.232Z,17.57
2019-06-07T08:05:12.174Z,17.60
2019-06-07T08:06:56.298Z,17.70
2019-06-07T08:09:25.347Z,17.96
2019-06-07T08:12:00.013Z,18.11
2019-06-07T08:14:25.104Z,18.04
2019-06-07T08:16:57.273Z,18.22
2019-06-07T08:19:25.134Z,18.25
2019-06-07T08:21:55.703Z,18.31
2019-06-07T08:24:25.302Z,18.40
2019-06-07T08:27:18.223Z,18.40
2019-06-07T08:29:25.038Z,18.52
2019-06-07T08:31:57.611Z,18.54
2019-06-07T08:34:25.158Z,18.75
2019-06-07T08:36:57.463Z,19.01
2019-06-07T08:39:25.076Z,19.20
2019-06-07T08:42:13.833Z,19.15
2019-06-07T08:44:25.784Z,19.31
2019-06-07T08:47:16.048Z,19.27
2019-06-07T08:49:26.123Z,19.31
2019-06-07T08:52:03.051Z,19.42
2019-06-07T08:54:26.962Z,19.43
2019-06-07T08:57:16.893Z,19.35
2019-06-07T08:59:28.102Z,19.45
2019-06-07T09:01:59.678Z,19.87
2019-06-07T09:04:28.666Z,20.19
2019-06-07T09:07:18.128Z,20.19
2019-06-07T09:09:28.870Z,20.08
2019-06-07T09:12:03.215Z,20.44
2019-06-07T09:14:29.356Z,20.94
2019-06-07T09:17:01.325Z,21.18
2019-06-07T09:19:29.134Z,21.44
2019-06-07T09:22:03.340Z,21.91
2019-06-07T09:24:29.361Z,21.09
2019-06-07T09:27:02.426Z,21.23
2019-06-07T09:29:30.182Z,21.24
2019-06-07T09:32:04.393Z,21.30
2019-06-07T09:34:30.342Z,21.67
2019-06-07T09:37:10.927Z,21.28
2019-06-07T09:39:30.580Z,20.94
2019-06-07T09:42:01.599Z,21.24
2019-06-07T09:44:30.470Z,21.64
2019-06-07T09:47:19.478Z,21.55
2019-06-07T09:49:32.991Z,22.16
2019-06-07T09:52:06.758Z,22.81
2019-06-07T09:57:07.538Z,23.06
2019-06-07T09:59:33.787Z,22.56
2019-06-07T10:02:05.595Z,22.11
2019-06-07T10:04:34.140Z,22.84
2019-06-07T10:07:12.318Z,23.27
2019-06-07T10:12:06.436Z,23.22
2019-06-07T10:14:35.544Z,23.11
2019-06-07T10:17:05.034Z,23.10
2019-06-07T10:19:34.923Z,22.66
2019-06-07T10:22:05.733Z,21.93
2019-06-07T10:24:35.346Z,21.50
2019-06-07T10:27:05.894Z,21.26
2019-06-07T10:29:35.373Z,21.05
2019-06-07T10:32:09.081Z,20.87
2019-06-07T10:34:38.534Z,20.77
2019-06-07T10:37:09.828Z,20.85
2019-06-07T10:39:48.066Z,21.06
2019-06-07T10:42:11.399Z,20.92
2019-06-07T10:44:40.734Z,20.82
2019-06-07T10:47:10.106Z,20.61
2019-06-07T10:49:39.600Z,20.16
2019-06-07T10:52:10.367Z,19.92
2019-06-07T10:54:39.854Z,20.31
2019-06-07T10:57:12.062Z,20.14
2019-06-07T10:59:39.961Z,20.21
2019-06-07T11:02:09.755Z,20.17
2019-06-07T11:04:39.291Z,20.19
2019-06-07T11:07:09.966Z,20.24
2019-06-07T11:09:39.114Z,20.12
2019-06-07T11:12:08.442Z,20.01
2019-06-07T11:14:37.622Z,20.05
2019-06-07T11:17:07.416Z,20.25
2019-06-07T11:19:36.946Z,20.14
2019-06-07T11:22:06.130Z,20.13
2019-06-07T11:24:35.123Z,20.08
2019-06-07T11:27:04.294Z,19.86
2019-06-07T11:29:33.331Z,19.83
2019-06-07T11:32:02.760Z,20.02
2019-06-07T11:34:31.974Z,19.88
2019-06-07T11:37:01.385Z,19.76
2019-06-07T11:39:30.694Z,19.58
2019-06-07T11:42:00.708Z,19.53
2019-06-07T11:44:30.144Z,19.29
2019-06-07T11:46:59.202Z,19.16
2019-06-07T11:49:28.242Z,19.19
2019-06-07T11:51:57.256Z,18.92
2019-06-07T11:54:26.634Z,18.69
2019-06-07T11:56:56.018Z,18.40
2019-06-07T11:59:25.444Z,18.37
2019-06-07T12:01:54.820Z,18.47
2019-06-07T12:04:34.329Z,18.35
2019-06-07T12:06:55.103Z,18.32
2019-06-07T12:09:27.944Z,18.08
2019-06-07T12:11:55.678Z,17.77
2019-06-07T12:14:24.706Z,17.14
2019-06-07T12:16:54.157Z,17.00
2019-06-07T12:19:23.316Z,16.91
2019-06-07T12:21:52.346Z,16.87
2019-06-07T12:24:21.387Z,16.57
2019-06-07T12:26:50.897Z,16.32
2019-06-07T12:29:21.230Z,16.27
2019-06-07T12:31:50.350Z,16.04
2019-06-07T12:34:19.538Z,15.96
2019-06-07T12:36:48.960Z,15.85
2019-06-07T12:39:18.112Z,16.06
2019-06-07T12:41:47.102Z,16.14
2019-06-07T12:44:17.032Z,16.25
2019-06-07T12:46:46.324Z,16.20
2019-06-07T12:49:15.554Z,16.27
2019-06-07T12:51:45.318Z,16.37
2019-06-07T12:54:15.471Z,16.42
2019-06-07T12:56:44.623Z,16.26
2019-06-07T12:59:13.952Z,16.52
2019-06-07T13:01:44.157Z,16.64
2019-06-07T13:04:14.364Z,16.63
2019-06-07T13:06:43.802Z,16.69
2019-06-07T13:09:13.448Z,16.57
2019-06-07T13:11:42.510Z,16.34
2019-06-07T13:14:11.697Z,16.34
2019-06-07T13:16:40.735Z,16.23
2019-06-07T13:19:10.174Z,16.21
2019-06-07T13:21:39.518Z,16.06
2019-06-07T13:24:10.000Z,15.98
2019-06-07T13:26:39.608Z,15.89
2019-06-07T13:29:08.632Z,15.84
2019-06-07T13:31:37.734Z,15.80
2019-06-07T13:34:06.792Z,15.81
2019-06-07T13:36:36.376Z,15.87
2019-06-07T13:39:07.885Z,15.87
2019-06-07T13:41:42.951Z,16.05
2019-06-07T13:44:08.023Z,16.20
2019-06-07T13:46:37.204Z,16.28
2019-06-07T13:49:06.775Z,16.33
2019-06-07T13:51:39.202Z,16.36
2019-06-07T13:54:08.193Z,16.48
2019-06-07T13:56:37.270Z,16.54
2019-06-07T13:59:06.690Z,16.64
2019-06-07T14:01:35.708Z,16.64
2019-06-07T14:04:05.088Z,16.62
2019-06-07T14:06:34.050Z,16.68
2019-06-07T14:09:04.991Z,16.71
2019-06-07T14:11:49.572Z,16.88
2019-06-07T14:14:06.372Z,16.89
2019-06-07T14:16:35.419Z,16.89
2019-06-07T14:19:04.435Z,16.72
2019-06-07T14:21:33.814Z,16.81
2019-06-07T14:24:02.840Z,16.81
2019-06-07T14:26:32.594Z,16.82
2019-06-07T14:29:01.754Z,16.75
2019-06-07T14:31:32.124Z,16.72
2019-06-07T14:34:01.373Z,16.83
2019-06-07T14:36:31.089Z,16.82
2019-06-07T14:39:00.859Z,16.68
2019-06-07T14:41:31.699Z,16.46
2019-06-07T14:44:00.648Z,16.54
2019-06-07T14:46:30.255Z,16.49
2019-06-07T14:48:59.317Z,16.58
2019-06-07T14:51:28.435Z,16.61
2019-06-07T14:53:57.911Z,16.65
2019-06-07T14:56:27.120Z,16.59
2019-06-07T14:58:56.122Z,16.78
2019-06-07T15:01:26.249Z,16.90
2019-06-07T15:03:55.485Z,16.55
2019-06-07T15:06:24.832Z,16.86
2019-06-07T15:08:53.903Z,16.72
2019-06-07T15:11:22.917Z,16.81
2019-06-07T15:13:52.298Z,16.75
2019-06-07T15:16:21.350Z,16.72
2019-06-07T15:18:50.474Z,16.61
2019-06-07T15:21:19.498Z,16.71
2019-06-07T15:23:48.904Z,16.69
2019-06-07T15:26:17.956Z,16.66
2019-06-07T15:28:47.298Z,16.42
2019-06-07T15:31:16.318Z,16.52
2019-06-07T15:33:45.710Z,16.46
2019-06-07T15:36:14.862Z,16.55
2019-06-07T15:38:43.979Z,16.74
2019-06-07T15:41:13.064Z,16.87
2019-06-07T15:43:42.158Z,16.91
2019-06-07T15:46:11.228Z,16.89
2019-06-07T15:48:40.584Z,17.04
2019-06-07T15:51:10.096Z,17.05
2019-06-07T15:53:43.181Z,17.47
2019-06-07T15:56:09.960Z,18.02
2019-06-07T15:58:39.487Z,18.17
2019-06-07T16:01:08.642Z,18.09
2019-06-07T16:03:38.032Z,17.71
2019-06-07T16:06:07.595Z,17.47
2019-06-07T16:08:38.547Z,17.19
2019-06-07T16:11:08.097Z,17.26
2019-06-07T16:13:37.194Z,17.21
2019-06-07T16:16:06.718Z,17.60
2019-06-07T16:18:37.557Z,17.51
2019-06-07T16:21:07.116Z,17.34
2019-06-07T16:23:37.765Z,17.96
2019-06-07T16:26:07.290Z,17.91
2019-06-07T16:28:36.345Z,18.02
2019-06-07T16:31:05.446Z,17.78
2019-06-07T16:33:34.684Z,18.03
2019-06-07T16:36:03.806Z,18.04
2019-06-07T16:38:32.805Z,17.62
2019-06-07T16:41:01.891Z,17.42
2019-06-07T16:43:30.978Z,17.27
2019-06-07T16:46:00.320Z,17.26
2019-06-07T16:48:30.107Z,17.38
2019-06-07T16:50:59.559Z,17.05
2019-06-07T16:53:28.626Z,17.08
2019-06-07T16:55:58.162Z,17.13
2019-06-07T16:58:29.266Z,16.93
2019-06-07T17:00:58.782Z,16.94
2019-06-07T17:03:28.222Z,16.85
2019-06-07T17:05:57.492Z,16.84
2019-06-07T17:08:26.834Z,17.02
2019-06-07T17:10:56.820Z,17.20
2019-06-07T17:13:33.616Z,17.21
2019-06-07T17:16:00.469Z,17.15
2019-06-07T17:18:30.369Z,17.11
2019-06-07T17:21:00.511Z,16.97
2019-06-07T17:23:32.986Z,16.87
2019-06-07T17:26:02.189Z,17.06
2019-06-07T17:28:31.689Z,17.07
2019-06-07T17:31:00.963Z,16.94
2019-06-07T17:33:30.585Z,16.99
2019-06-07T17:36:00.872Z,17.18
2019-06-07T17:38:30.500Z,17.34
2019-06-07T17:41:00.145Z,17.19
2019-06-07T17:43:29.818Z,17.00
2019-06-07T17:46:00.055Z,16.90
2019-06-07T17:48:30.149Z,16.86
2019-06-07T17:50:59.885Z,16.85
2019-06-07T17:53:30.578Z,16.69
2019-06-07T17:55:59.911Z,16.63
2019-06-07T17:58:29.421Z,16.55
2019-06-07T18:00:58.747Z,16.71
2019-06-07T18:03:28.238Z,16.78
2019-06-07T18:05:57.636Z,16.73
2019-06-07T18:08:26.765Z,16.68
2019-06-07T18:10:56.503Z,16.67
2019-06-07T18:13:25.936Z,16.69
2019-06-07T18:15:58.943Z,16.73
2019-06-07T18:18:26.448Z,16.64
2019-06-07T18:20:55.767Z,16.58
2019-06-07T18:23:25.585Z,16.51
2019-06-07T18:25:54.885Z,16.44
2019-06-07T18:28:24.887Z,16.20
2019-06-07T18:30:54.965Z,15.93
2019-06-07T18:33:23.995Z,15.93
2019-06-07T18:35:55.289Z,15.43
2019-06-07T18:38:24.749Z,15.23
2019-06-07T18:40:55.262Z,15.16
2019-06-07T18:43:24.511Z,15.09
2019-06-07T18:45:53.635Z,15.27
2019-06-07T18:48:22.661Z,15.40
2019-06-07T18:50:52.618Z,15.25
2019-06-07T18:53:22.338Z,15.22
2019-06-07T18:55:52.224Z,15.29
2019-06-07T18:58:21.348Z,15.37
2019-06-07T19:00:51.447Z,15.46
2019-06-07T19:03:20.544Z,15.35
2019-06-07T19:05:50.078Z,15.33
2019-06-07T19:08:19.207Z,15.20
2019-06-07T19:10:48.787Z,15.22
2019-06-07T19:13:18.252Z,15.11
2019-06-07T19:15:47.661Z,15.42
2019-06-07T19:18:17.466Z,15.38
2019-06-07T19:20:46.450Z,15.32
2019-06-07T19:23:15.518Z,15.39
2019-06-07T19:25:44.550Z,15.34
2019-06-07T19:28:14.903Z,15.38
2019-06-07T19:30:44.075Z,15.71
2019-06-07T19:33:14.153Z,15.43
2019-06-07T19:35:43.887Z,15.36
2019-06-07T19:38:12.933Z,15.38
2019-06-07T19:40:41.978Z,15.46
2019-06-07T19:43:14.337Z,15.57
2019-06-07T19:45:44.417Z,15.65
2019-06-07T19:48:13.434Z,15.59
2019-06-07T19:50:43.401Z,15.84
2019-06-07T19:53:12.488Z,15.71
2019-06-07T19:55:41.595Z,15.97
2019-06-07T19:58:11.093Z,15.88
2019-06-07T20:00:41.383Z,15.90
2019-06-07T20:03:10.424Z,15.77
2019-06-07T20:05:39.584Z,15.48
2019-06-07T20:08:09.019Z,15.57
2019-06-07T20:10:38.439Z,15.78
2019-06-07T20:13:07.445Z,15.80
2019-06-07T20:15:37.124Z,15.70
2019-06-07T20:18:07.726Z,15.71
2019-06-07T20:20:37.059Z,15.48
2019-06-07T20:23:06.659Z,15.55
2019-06-07T20:25:36.072Z,15.58
2019-06-07T20:28:05.771Z,15.35
2019-06-07T20:30:34.824Z,15.19
2019-06-07T20:33:04.037Z,15.40
2019-06-07T20:35:33.467Z,15.43
2019-06-07T20:38:04.006Z,15.33
2019-06-07T20:40:33.656Z,15.35
2019-06-07T20:43:03.550Z,15.26
2019-06-07T20:45:34.301Z,15.23
2019-06-07T20:48:04.202Z,15.24
2019-06-07T20:50:33.545Z,15.11
2019-06-07T20:53:03.173Z,15.10
2019-06-07T20:55:33.002Z,15.23
2019-06-07T20:58:03.775Z,15.16
2019-06-07T21:00:33.183Z,14.79
2019-06-07T21:03:03.201Z,14.82
2019-06-07T21:05:32.496Z,14.84
2019-06-07T21:08:02.383Z,14.72
2019-06-07T21:10:33.238Z,14.77
2019-06-07T21:13:02.664Z,14.84
2019-06-07T21:15:45.593Z,14.81
2019-06-07T21:18:09.912Z,14.69
2019-06-07T21:20:35.051Z,14.94
2019-06-07T21:23:04.750Z,15.04
2019-06-07T21:25:33.802Z,14.99
2019-06-07T21:28:03.134Z,15.01
2019-06-07T21:30:32.210Z,15.05
2019-06-07T21:33:01.399Z,15.17
2019-06-07T21:35:30.943Z,15.21
2019-06-07T21:38:00.017Z,15.17
2019-06-07T21:40:29.060Z,15.14
2019-06-07T21:42:58.074Z,15.12
2019-06-07T21:45:27.425Z,15.06
2019-06-07T21:47:56.575Z,15.02
2019-06-07T21:50:25.627Z,14.91
2019-06-07T21:52:54.713Z,14.84
2019-06-07T21:55:24.009Z,14.85
2019-06-07T21:57:53.065Z,14.90
2019-06-07T22:00:28.723Z,14.84
2019-06-07T22:02:57.863Z,14.68
2019-06-07T22:05:27.185Z,14.80
2019-06-07T22:07:56.216Z,14.91
2019-06-07T22:10:25.225Z,14.86
2019-06-07T22:12:54.855Z,14.94
2019-06-07T22:15:34.098Z,14.79
2019-06-07T22:17:55.000Z,14.80
2019-06-07T22:20:24.378Z,14.63
2019-06-07T22:22:53.458Z,14.33
2019-06-07T22:25:22.536Z,14.23
2019-06-07T22:27:51.960Z,14.05
2019-06-07T22:30:21.515Z,13.98
2019-06-07T22:32:51.085Z,13.96
2019-06-07T22:35:20.103Z,13.86
2019-06-07T22:37:49.234Z,13.89
2019-06-07T22:40:18.698Z,13.76
2019-06-07T22:42:48.130Z,13.88
2019-06-07T22:45:17.161Z,13.87
2019-06-07T22:47:46.259Z,13.96
2019-06-07T22:50:16.494Z,13.84
2019-06-07T22:52:45.853Z,13.82
2019-06-07T22:55:15.918Z,13.88
2019-06-07T22:57:56.607Z,13.96
2019-06-07T23:00:26.851Z,13.95
2019-06-07T23:02:56.240Z,14.08
2019-06-07T23:05:25.382Z,14.03
2019-06-07T23:07:54.374Z,14.22
2019-06-07T23:10:23.727Z,14.20
2019-06-07T23:12:52.779Z,14.24
2019-06-07T23:15:22.303Z,14.26
2019-06-07T23:17:51.684Z,14.33
2019-06-07T23:20:20.694Z,14.36
2019-06-07T23:22:50.096Z,14.37
2019-06-07T23:25:23.832Z,14.30
2019-06-07T23:27:50.251Z,14.35
2019-06-07T23:30:21.689Z,14.24
2019-06-07T23:32:50.618Z,14.26
2019-06-07T23:35:21.120Z,14.26
2019-06-07T23:37:50.476Z,14.17
2019-06-07T23:40:19.585Z,14.23
2019-06-07T23:42:48.892Z,14.23
2019-06-07T23:45:19.508Z,14.28
2019-06-07T23:47:48.658Z,14.20
2019-06-07T23:50:17.764Z,14.26
2019-06-07T23:52:47.405Z,14.23
2019-06-07T23:55:17.935Z,14.15
2019-06-07T23:57:47.065Z,14.17
